Terminal Aerodrome Forecast
Issued by NWS

Home | Current Version | Previous Version | Graphics & Text | Print | Product List | Glossary On
Versions: 1 2 3 4 5 6 7 8 9 10 11 12 13 14
000
FTUS43 KMPX 272100 AAA
TAFRNH
TAF AMD
KRNH 272101Z 2721/2818 34012KT P6SM VCSH SCT030 BKN060
     FM280400 34004KT P6SM SCT050=

USA.gov is the U.S. government's official web portal to all federal, state and local government web resources and services.